Anaconda, MT

1:03 PM MDT on August 29, 2015 (GMT -0600)
goosetown 2 | | Change Station
CLOSE
Current Station
Personal Weather Station
Location: Anaconda, MT
Elevation: 5240 ft
Nearby Weather Stations
Active Advisory: Fire Weather Warning

Elev 5240 ft 46.13 °N, 112.94 °W | Updated 14 minutes ago

Clear
Clear
79.3 °F
Feels Like 79 °F
N
2.0
Wind Variable Wind from ENE
Gusts 7.0 mph

Today
High -- | Low -- °F
--% Chance of Precip.
Yesterday
High -- | Low -- °F
Precip. -- in
6:48 AM 8:16 PM
Full, 100% visible
Pressure 29.80 in
Visibility 10.0 miles
Clouds Clear
Heat Index 79 °F
Dew Point 45 °F
Humidity 30%
Rainfall 0.00 in
Snow Depth Not available.
UV 9 out of 12
Pollen 8.40 out of 12
Air Quality Not available.
Flu Activity Not available.
METAR KBTM 291853Z AUTO 19019G28KT 10SM CLR 27/03 A2999 RMK AO2 PK WND 18028/1850 SLP091 T02670033
Pressure 29.80 in
Visibility 10.0 miles
Clouds Clear
Heat Index 79 °F
Dew Point 45 °F
Humidity 30%
Rainfall 0.00 in
Snow Depth Not available.
UV 9 out of 12
Pollen 8.40 out of 12
Air Quality Not available.
Flu Activity Not available.
METAR KBTM 291853Z AUTO 19019G28KT 10SM CLR 27/03 A2999 RMK AO2 PK WND 18028/1850 SLP091 T02670033

10-Day Weather Forecast

×

Almanac

Astronomy

Aug. 29, 2015 Rise Set
Actual Time
Civil Twilight
Nautical Twilight
Astronomical Twilight
Moon
Length of Visible Light
Length of Day
Tomorrow will be .
, % of the Moon is Illuminated

Today's Extremes

State Highs State Lows

Community

WunderPhotos

Upload Photos

1,850,777 photos uploaded!

WunderBlogs® & News

Nearby

Air Quality

  Air Quality AQ Index Pollutant
Not available.

Snow Depth

Station Depth Elevation

Earthquake Activity

City Distance Mag. Time & Date
Minimum magnitude displayed is 2.5.

Coastal Water Temperatures

Place Temperature

Stations

Nearby Weather Stations

Station Location Temp. Windchill Dew Point Humidity Wind Precip. Elev Updated Type
                   
Fire Weather Warning
Statement as of 12:58 PM MDT on August 29, 2015

... Red flag warning remains in effect until midnight MDT tonight
for gusty winds and low humidities across the deerlodge/west
Beaverhead... east Beaverhead...

A red flag warning remains in effect until midnight MDT tonight.

* Winds: south to southwest increasing to 25 to 35 mph with
higher gusts this afternoon and evening. Ridgetops and any
exposed elevations will see gusts up to 45 mph. Winds will
shift to the west and northwest during the late evening and
decrease.

* Minimum humidities: 15 to 25 percent is expected. Humidity
recovery this evening will be good.

* Thunderstorms: isolated mainly dry thunderstorms. Erratic
outflow gusts should be expected with thunderstorms.